West Hartford, Connecticut
Current Conditions -  °F | °C
As of 4:53 AM on Friday 19 Dec 2014 (Local Time) from KHFD Reporting Station
Overcast Overcast  
Wind Chill: -3°   Ceiling: 3700
Heat Index:   Visibility: 10mi
Dew Point: -7°   Wind: 10mph
Humidity: 54%   Direction: 320°NW
Pressure: 29.95"   Gusts: 23mph
Location:  41.76°N, 72.74°W
Report Text: KHFD 190953Z 32009G20KT 10SM OVC037 02/M07 A2995 RMK AO2 SLP140 T00171067
Loading
Personal Weather Stations






























Interactive Weather Map New forecast layout! Learn more

10-Day Weather Forecast

Advertisements
Track Severe Weather on mobile